Bridgeport Valley, California Weather observations

Data are for 10 minute period ending at time listed.
 Day   Time   Solar   Ave.   Ave.  Ave.  Vector  Max.   Baro.   Total    
  of    of     Rad.   Air    Rel.  Wind   Wind   Wind  Press.  Precip.   
Year   Day            Temp.  Hum.  Speed  Dir.   Gust                    
2016   (PST)  Kw/m2    F      %     mph   deg.    mph    mb.     in.     
-------------------------------------------------------------------------
  41   20:30   0.00   32.5    63    1.8   282     4.0   810.0    0.00 
  41   20:40   0.00   31.8    66    2.5   231     3.7   810.0    0.00 
  41   20:50   0.00   31.9    65    3.0   206     4.1   809.9    0.00 
  41   21:00   0.00   29.8    72    3.5   266     4.6   809.9    0.00 
  41   21:10   0.00   29.9    73    2.3   235     2.9   810.0    0.00 
  41   21:20   0.00   33.9    60    2.4   150     3.4   809.9    0.00 
  41   21:30   0.00   28.8    71    3.7   126     5.4   810.0    0.00 
  41   21:40   0.00   24.6    84    0.5   307     1.9   810.0    0.00 
  41   21:50   0.00   25.6    83    2.4   284     4.7   810.1    0.00 
  41   22:00   0.00   28.4    75    1.1   231     3.7   810.1    0.00 
  41   22:10   0.00   29.3    72    1.0   209     3.6   810.1    0.00 
  41   22:20   0.00   29.7    70    3.0   168     3.8   810.1    0.00 
  41   22:30   0.00   27.9    74    3.1   208     4.2   810.1    0.00 
  41   22:40   0.00   27.5    77    3.1   233     3.9   810.1    0.00 
  41   22:50   0.00   26.6    80    2.3   248     3.4   810.1    0.00 
  41   23:00   0.00   26.7    80    2.6   258     3.4   810.1    0.00 
  41   23:10   0.00   27.8    77    2.2   253     3.9   810.1    0.00 
  41   23:20   0.00   29.6    70    2.5   185     4.3   810.0    0.00 
  41   23:30   0.00   26.0    79    2.3   274     3.5   810.0    0.00 
  41   23:40   0.00   26.5    81    0.9   247     2.1   810.0    0.00 
  41   23:50   0.00   24.3    80    0.7    94     2.0   810.0    0.00 
  42    0:00   0.00   23.6    84    0.7     0     1.6   810.0    0.00 
  42    0:10   0.00   24.4    82    0.7    43     2.3   810.0    0.00 
  42    0:20   0.00   25.0    79    1.1   114     2.2   810.0    0.00 
  42    0:30   0.00   24.3    84    1.7   256     2.6   810.0    0.00 
  42    0:40   0.00   26.0    81    0.7   244     2.9   809.9    0.00 
  42    0:50   0.00   26.0    80    0.3   255     2.0   809.8    0.00 
  42    1:00   0.00   25.1    81    1.4   260     2.1   809.8    0.00 
  42    1:10   0.00   24.5    83    1.4   230     2.5   809.8    0.00 
  42    1:20   0.00   23.8    85    2.5   229     3.5   809.8    0.00 
  42    1:30   0.00   23.0    86    0.7   279     2.6   809.7    0.00 
  42    1:40   0.00   22.1    88    0.6   210     1.6   809.7    0.00 
  42    1:50   0.00   22.9    90    1.7   247     2.6   809.7    0.00 
  42    2:00   0.00   22.5    89    0.8   248     2.9   809.7    0.00 
  42    2:10   0.00   22.4    91    1.5   242     2.9   809.6    0.00 
  42    2:20   0.00   23.4    89    2.4   252     3.8   809.6    0.00 
  42    2:30   0.00   23.9    88    1.9   269     3.0   809.5    0.00 
  42    2:40   0.00   23.0    88    1.4   267     3.1   809.5    0.00 
  42    2:50   0.00   21.9    87    0.9   220     2.7   809.4    0.00 
  42    3:00   0.00   19.8    88    1.1   185     2.3   809.3    0.00 
  42    3:10   0.00   19.4    91    1.9   166     2.6   809.3    0.00 
  42    3:20   0.00   20.6    91    2.2   240     3.1   809.2    0.00 
  42    3:30   0.00   21.5    90    1.8   231     3.3   809.2    0.00 
  42    3:40   0.00   23.0    86    1.9   254     3.5   809.1    0.00 
  42    3:50   0.00   21.8    88    2.5   265     5.0   809.1    0.00 
  42    4:00   0.00   22.3    89    2.3   273     4.4   809.1    0.00 
  42    4:10   0.00   21.9    89    1.0   218     2.0   809.1    0.00 
  42    4:20   0.00   20.2    87    1.4   168     3.3   809.1    0.00 
  42    4:30   0.00   18.8    88    0.5   197     3.1   809.1    0.00 
  42    4:40   0.00   19.5    91    1.9   226     4.1   809.2    0.00 
  42    4:50   0.00   20.0    90    0.9   268     2.5   809.2    0.00 
  42    5:00   0.00   20.7    90    0.5   310     2.0   809.2    0.00 
  42    5:10   0.00   20.3    89    1.4   233     2.5   809.3    0.00 
  42    5:20   0.00   20.5    90    0.6   252     1.8   809.4    0.00 
  42    5:30   0.00   20.2    90    1.3   263     3.9   809.5    0.00 
  42    5:40   0.00   19.2    88    2.6   197     5.1   809.4    0.00 
  42    5:50   0.00   19.5    91    2.7   239     4.2   809.4    0.00 
  42    6:00   0.00   20.0    89    1.3   236     2.6   809.4    0.00 
  42    6:10   0.00   20.1    90    0.0   269     1.2   809.5    0.00 
  42    6:20   0.00   19.5    89    2.3   155     4.0   809.5    0.00 
  42    6:30   0.00   19.1    91    1.7   234     3.7   809.6    0.00 
  42    6:40   0.00   20.4    91    1.7   191     2.9   809.5    0.00 
  42    6:50   0.01   21.2    90    2.2   251     5.1   809.5    0.00 
  42    7:00   0.01   22.5    87    1.4   220     2.0   809.5    0.00 
  42    7:10   0.03   22.8    86    0.7   257     3.9   809.5    0.00 
  42    7:20   0.06   23.1    87    0.4   288     2.1   809.5    0.00 
  42    7:30   0.07   24.5    87    0.0    91     1.1   809.5    0.00 
  42    7:40   0.08   25.2    86    1.1   102     2.9   809.6    0.00 
  42    7:50   0.11   25.4    87    0.5   108     2.3   809.6    0.00 
  42    8:00   0.11   27.1    85    0.0     0     0.0   809.6    0.00 
  42    8:10   0.13   28.2    82    0.0     0     0.6   809.7    0.00 
  42    8:20   0.16   28.9    79    0.3    80     1.4   809.8    0.00 
  42    8:30   0.18   29.6    80    0.4   108     1.2   809.8    0.00 
  42    8:40   0.19   30.3    78    0.8   198     1.9   809.7    0.00 
  42    8:50   0.20   30.4    78    0.6   258     2.2   809.7    0.00 
  42    9:00   0.24   31.6    74    0.1   270     1.0   809.7    0.00 
  42    9:10   0.32   33.1    71    0.6   304     2.3   809.7    0.00 
  42    9:20   0.34   33.7    73    1.1   310     2.3   809.7    0.00 
  42    9:30   0.35   35.2    70    0.6   330     2.1   809.7    0.00 
  42    9:40   0.28   36.5    68    0.3    10     1.8   809.8    0.00 
  42    9:50   0.34   37.5    67    1.0    71     2.9   809.8    0.00 
  42   10:00   0.42   38.3    63    0.8   121     3.5   809.8    0.00 
  42   10:10   0.43   39.3    59    0.9   236     2.7   809.8    0.00 
  42   10:20   0.51   41.8    54    1.0   118     3.4   809.8    0.00 
  42   10:30   0.42   41.9    51    1.4   263     3.7   809.8    0.00 
  42   10:40   0.37   41.9    53    1.2   264     2.9   809.9    0.00 
  42   10:50   0.47   42.8    51    2.0   238     3.7   809.8    0.00 
  42   11:00   0.43   44.4    46    1.6   157     3.1   809.8    0.00 
  42   11:10   0.35   44.8    47    0.7   271     2.9   809.7    0.00 
  42   11:20   0.33   46.2    45    0.8   141     2.5   809.6    0.00 
  42   11:30   0.35   46.5    42    1.2   169     2.9   809.6    0.00 
  42   11:40   0.41   47.0    42    1.4   135     2.9   809.5    0.00 
  42   11:50   0.50   48.1    40    0.9   138     2.2   809.3    0.00 
  42   12:00   0.51   49.2    38    1.4   102     3.1   809.1    0.00 
  42   12:10   0.41   49.5    33    1.1   358     3.0   809.0    0.00 
  42   12:20   0.40   49.8    33    1.6   307     3.1   808.8    0.00 
  42   12:30   0.43   50.8    34    1.3   299     3.3   808.6    0.00 
  42   12:40   0.38   51.6    34    0.8   228     3.2   808.5    0.00 
  42   12:50   0.34   52.5    30    0.7   300     2.9   808.4    0.00 
  42   13:00   0.42   53.6    28    1.0    46     2.6   808.2    0.00 
  42   13:10   0.41   53.3    28    2.2    70     4.1   808.1    0.00 
  42   13:20   0.32   53.0    25    2.3    80     4.3   807.9    0.00 
  42   13:30   0.29   53.0    25    1.8    82     3.2   807.8    0.00 
  42   13:40   0.32   53.5    26    1.5   103     3.6   807.7    0.00 
  42   13:50   0.31   53.8    24    1.2   112     2.8   807.6    0.00 
  42   14:00   0.32   54.3    24    2.0    37     3.2   807.5    0.00 
  42   14:10   0.32   55.0    23    1.9   111     4.4   807.5    0.00 
  42   14:20   0.35   55.8    22    0.9    81     2.9   807.4    0.00 
  42   14:30   0.48   57.0    20    1.3   246     3.1   807.3    0.00 
  42   14:40   0.65   60.6    17    0.8   232     3.1   807.3    0.00 
  42   14:50   0.56   61.7    14    1.1   294     3.2   807.3    0.00 
  42   15:00   0.45   62.1    16    1.5    14     3.5   807.2    0.00 
  42   15:10   0.51   64.0    15    1.1    52     4.7   807.2    0.00 
  42   15:20   0.52   63.5    17    2.4    56     5.0   807.0    0.00 
  42   15:30   0.42   63.2    18    2.2    15     4.2   807.0    0.00 
  42   15:40   0.40   63.6    18    1.2     1     2.6   807.0    0.00 
  42   15:50   0.32   64.1    18    0.8   267     2.0   807.0    0.00 
  42   16:00   0.36   64.9    17    0.9   342     2.3   806.9    0.00 
  42   16:10   0.29   64.9    17    1.5   322     3.8   806.9    0.00 
  42   16:20   0.28   64.3    17    1.7   353     3.4   807.0    0.00 
  42   16:30   0.21   63.6    20    3.9    33     6.9   807.1    0.00 
  42   16:40   0.12   60.2    27    3.7    38     4.9   807.3    0.00 
  42   16:50   0.07   57.1    28    3.6    35     5.0   807.4    0.00 
  42   17:00   0.05   55.5    28    3.5    37     4.6   807.5    0.00 
  42   17:10   0.03   55.5    24    4.0   345     6.8   807.6    0.00 
  42   17:20   0.02   54.1    23    3.9   343     6.5   807.7    0.00 
  42   17:30   0.01   49.9    32    3.1    88     5.8   807.7    0.00 
  42   17:40   0.00   47.0    35    4.1    71     6.6   807.8    0.00 
  42   17:50   0.00   45.8    41    3.9    93     5.8   807.8    0.00 
  42   18:00   0.00   44.9    42    3.5    81     4.7   807.7    0.00 
  42   18:10   0.00   44.5    39    4.9     5     7.3   807.8    0.00 
  42   18:20   0.00   43.4    42    3.9   238    10.8   808.0    0.00 
  42   18:30   0.00   47.5    32    3.5    70     5.0   808.0    0.00 
  42   18:40   0.00   46.0    35    1.9    48     4.1   808.0    0.00 
  42   18:50   0.00   43.1    43    3.5     2     5.6   808.0    0.00 
  42   19:00   0.00   41.6    47    1.9   263     5.1   808.2    0.00 
  42   19:10   0.00   43.6    42    1.9   279     3.4   808.2    0.00 
  42   19:20   0.00   42.7    42    2.5   292     5.6   808.2    0.00 
  42   19:30   0.00   38.8    52    3.1   240     5.6   808.3    0.00 
  42   19:40   0.00   35.8    57    2.5   271     3.9   808.2    0.00 
  42   19:50   0.00   35.1    60    3.4   257     5.3   808.3    0.00 
  42   20:00   0.00   34.5    61    2.8   232     5.3   808.3    0.00 
  42   20:10   0.00   36.0    57    1.1   201     2.7   808.2    0.00 
  42   20:20   0.00   35.2    59    2.7   184     4.7   808.2    0.00 

Return to Bridgeport Valley graphs page.


Western Regional Climate Center,wrcc@dri.edu